Varjao, Brazil
Current Conditions -  °F | °C
As of 8:00 PM on Thursday 18 Dec 2014 (Local Time) from SBGO Reporting Station
Few Clouds Few Clouds  
Wind Chill: 75°   Ceiling: Unl
Heat Index: 75°   Visibility: 6mi
Dew Point: 66°   Wind: 6mph
Humidity: 73%   Direction: 280°W
Pressure: 29.91"   Gusts: NA
Location:  17.05°S, 49.63°W
Report Text: SBGO 182200Z 28005KT 9999 FEW045 24/19 Q1013
Loading
Personal Weather Stations






























Interactive Weather Map New forecast layout! Learn more

10-Day Weather Forecast

Advertisements
Track Severe Weather on mobile